createdAt,value
2018-03-06T00:01:41.922Z,4.50
2018-03-06T00:04:08.120Z,4.50
2018-03-06T00:06:34.259Z,4.60
2018-03-06T00:09:00.463Z,4.60
2018-03-06T00:11:26.645Z,4.60
2018-03-06T00:13:52.814Z,4.50
2018-03-06T00:16:20.507Z,4.50
2018-03-06T00:18:47.765Z,4.50
2018-03-06T00:21:13.954Z,4.50
2018-03-06T00:23:40.196Z,4.50
2018-03-06T00:26:06.447Z,4.50
2018-03-06T00:28:32.613Z,4.40
2018-03-06T00:30:58.783Z,4.30
2018-03-06T00:33:25.244Z,4.40
2018-03-06T00:35:51.414Z,4.30
2018-03-06T00:38:17.553Z,4.20
2018-03-06T00:40:43.706Z,4.20
2018-03-06T00:43:10.659Z,4.10
2018-03-06T00:45:36.811Z,4.10
2018-03-06T00:48:03.027Z,4.10
2018-03-06T00:50:29.185Z,4.20
2018-03-06T00:52:56.069Z,4.30
2018-03-06T00:55:22.494Z,4.30
2018-03-06T00:57:49.388Z,4.30
2018-03-06T01:00:15.594Z,4.30
2018-03-06T01:02:41.766Z,4.30
2018-03-06T01:05:07.913Z,4.30
2018-03-06T01:07:34.066Z,4.20
2018-03-06T01:10:00.300Z,4.10
2018-03-06T01:12:26.507Z,4.00
2018-03-06T01:14:52.665Z,4.10
2018-03-06T01:17:18.848Z,4.00
2018-03-06T01:19:45.013Z,4.00
2018-03-06T01:22:11.202Z,3.90
2018-03-06T01:24:37.757Z,3.90
2018-03-06T01:27:03.940Z,3.90
2018-03-06T01:29:30.105Z,3.90
2018-03-06T01:31:56.334Z,3.90
2018-03-06T01:34:22.506Z,3.80
2018-03-06T01:36:49.209Z,3.80
2018-03-06T01:39:16.111Z,3.90
2018-03-06T01:41:42.370Z,3.90
2018-03-06T01:44:08.538Z,3.90
2018-03-06T01:46:35.455Z,4.10
2018-03-06T01:49:01.615Z,4.10
2018-03-06T01:51:27.792Z,4.10
2018-03-06T01:53:54.711Z,3.90
2018-03-06T01:56:20.889Z,3.90
2018-03-06T01:58:47.787Z,3.70
2018-03-06T02:01:13.963Z,3.70
2018-03-06T02:03:40.875Z,3.70
2018-03-06T02:06:07.029Z,3.70
2018-03-06T02:08:33.184Z,3.60
2018-03-06T02:10:59.343Z,3.70
2018-03-06T02:13:26.326Z,3.80
2018-03-06T02:15:52.772Z,3.80
2018-03-06T02:18:18.928Z,3.80
2018-03-06T02:20:45.091Z,3.80
2018-03-06T02:23:11.291Z,3.70
2018-03-06T02:25:37.462Z,3.70
2018-03-06T02:28:03.616Z,3.60
2018-03-06T02:30:29.801Z,3.50
2018-03-06T02:32:56.729Z,3.50
2018-03-06T02:35:22.865Z,3.50
2018-03-06T02:37:49.031Z,3.50
2018-03-06T02:40:15.974Z,3.40
2018-03-06T02:42:42.157Z,3.40
2018-03-06T02:45:08.329Z,3.40
2018-03-06T02:47:34.503Z,3.40
2018-03-06T02:50:01.579Z,3.40
2018-03-06T02:52:27.781Z,3.30
2018-03-06T02:54:53.952Z,3.40
2018-03-06T02:57:20.909Z,3.30
2018-03-06T02:59:47.819Z,3.40
2018-03-06T03:02:13.969Z,3.30
2018-03-06T03:04:40.159Z,3.40
2018-03-06T03:07:06.301Z,3.40
2018-03-06T03:09:32.425Z,3.40
2018-03-06T03:11:59.360Z,3.50
2018-03-06T03:14:25.515Z,3.50
2018-03-06T03:16:52.472Z,3.60
2018-03-06T03:19:18.608Z,3.60
2018-03-06T03:21:45.495Z,3.60
2018-03-06T03:24:11.757Z,3.60
2018-03-06T03:26:37.996Z,3.60
2018-03-06T03:29:04.200Z,3.70
2018-03-06T03:31:30.373Z,3.70
2018-03-06T03:33:56.545Z,3.70
2018-03-06T03:36:22.728Z,3.70
2018-03-06T03:38:48.918Z,3.70
2018-03-06T03:41:15.081Z,3.80
2018-03-06T03:43:41.992Z,3.80
2018-03-06T03:46:08.220Z,3.80
2018-03-06T03:48:34.396Z,3.80
2018-03-06T03:51:00.573Z,3.90
2018-03-06T03:53:26.716Z,3.90
2018-03-06T03:55:52.903Z,4.00
2018-03-06T03:58:19.130Z,4.00
2018-03-06T04:00:45.273Z,4.10
2018-03-06T04:03:11.822Z,4.20
2018-03-06T04:05:41.637Z,4.20
2018-03-06T04:08:08.345Z,4.20
2018-03-06T04:10:35.310Z,4.30
2018-03-06T04:13:02.224Z,4.30
2018-03-06T04:15:28.416Z,4.30
2018-03-06T04:17:55.338Z,4.50
2018-03-06T04:20:21.524Z,4.40
2018-03-06T04:22:47.679Z,4.50
2018-03-06T04:25:13.840Z,4.50
2018-03-06T04:27:40.019Z,4.50
2018-03-06T04:30:06.939Z,4.50
2018-03-06T04:32:33.149Z,4.50
2018-03-06T04:34:59.362Z,4.50
2018-03-06T04:37:26.272Z,4.60
2018-03-06T04:39:52.447Z,4.60
2018-03-06T04:42:18.615Z,4.60
2018-03-06T04:44:45.802Z,4.70
2018-03-06T04:47:11.969Z,4.70
2018-03-06T04:49:38.153Z,4.70
2018-03-06T04:52:04.296Z,4.80
2018-03-06T04:54:32.265Z,4.70
2018-03-06T04:56:58.489Z,4.70
2018-03-06T04:59:24.652Z,4.70
2018-03-06T05:01:51.561Z,4.70
2018-03-06T05:04:17.710Z,4.70
2018-03-06T05:06:43.918Z,4.70
2018-03-06T05:09:10.367Z,4.60
2018-03-06T05:11:36.569Z,4.60
2018-03-06T05:14:02.734Z,4.60
2018-03-06T05:16:28.896Z,4.60
2018-03-06T05:18:55.247Z,4.60
2018-03-06T05:21:21.495Z,4.60
2018-03-06T05:23:47.676Z,4.60
2018-03-06T05:26:14.553Z,4.60
2018-03-06T05:28:40.714Z,4.60
2018-03-06T05:31:06.891Z,4.60
2018-03-06T05:33:33.296Z,4.60
2018-03-06T05:35:59.436Z,4.60
2018-03-06T05:38:26.473Z,4.60
2018-03-06T05:40:52.615Z,4.60
2018-03-06T05:43:18.902Z,4.60
2018-03-06T05:45:45.063Z,4.60
2018-03-06T05:48:11.977Z,4.60
2018-03-06T05:50:38.886Z,4.60
2018-03-06T05:53:05.796Z,4.60
2018-03-06T05:55:32.684Z,4.60
2018-03-06T05:57:58.871Z,4.60
2018-03-06T06:00:25.070Z,4.60
2018-03-06T06:02:51.312Z,4.70
2018-03-06T06:05:17.506Z,4.80
2018-03-06T06:07:43.656Z,4.80
2018-03-06T06:10:09.866Z,4.80
2018-03-06T06:12:36.082Z,4.80
2018-03-06T06:15:03.049Z,4.90
2018-03-06T06:17:29.932Z,4.90
2018-03-06T06:19:56.064Z,4.90
2018-03-06T06:22:22.218Z,5.00
2018-03-06T06:24:48.412Z,5.00
2018-03-06T06:27:14.603Z,5.00
2018-03-06T06:29:40.740Z,5.10
2018-03-06T06:32:06.968Z,5.10
2018-03-06T06:34:33.113Z,5.10
2018-03-06T06:36:59.241Z,5.10
2018-03-06T06:39:25.374Z,5.20
2018-03-06T06:41:52.251Z,5.30
2018-03-06T06:44:18.400Z,5.20
2018-03-06T06:46:44.669Z,5.30
2018-03-06T06:49:10.841Z,5.40
2018-03-06T06:51:37.139Z,5.40
2018-03-06T06:54:03.297Z,5.40
2018-03-06T06:56:29.449Z,5.50
2018-03-06T06:58:55.775Z,5.60
2018-03-06T07:01:21.959Z,5.60
2018-03-06T07:03:48.088Z,5.70
2018-03-06T07:06:14.528Z,5.80
2018-03-06T07:08:41.514Z,5.90
2018-03-06T07:11:07.678Z,5.80
2018-03-06T07:13:33.897Z,5.90
2018-03-06T07:16:00.106Z,6.00
2018-03-06T07:18:26.991Z,6.10
2018-03-06T07:20:53.135Z,6.10
2018-03-06T07:23:19.533Z,6.10
2018-03-06T07:25:45.736Z,6.10
2018-03-06T07:28:11.891Z,6.20
2018-03-06T07:30:38.082Z,6.20
2018-03-06T07:33:06.111Z,6.20
2018-03-06T07:35:32.349Z,6.40
2018-03-06T07:37:58.541Z,6.40
2018-03-06T07:40:27.958Z,6.50
2018-03-06T07:42:54.859Z,6.70
2018-03-06T07:45:21.052Z,6.70
2018-03-06T07:47:47.189Z,6.70
2018-03-06T07:50:16.178Z,6.90
2018-03-06T07:52:42.364Z,6.80
2018-03-06T07:55:08.601Z,6.90
2018-03-06T07:57:34.809Z,7.00
2018-03-06T08:00:00.989Z,7.00
2018-03-06T08:02:27.184Z,7.00
2018-03-06T08:04:53.330Z,7.10
2018-03-06T08:07:20.255Z,7.20
2018-03-06T08:09:46.373Z,7.20
2018-03-06T08:12:12.536Z,7.20
2018-03-06T08:14:38.654Z,7.20
2018-03-06T08:17:04.896Z,7.30
2018-03-06T08:19:31.610Z,7.40
2018-03-06T08:21:58.505Z,7.30
2018-03-06T08:24:24.655Z,7.30
2018-03-06T08:26:50.816Z,7.30
2018-03-06T08:29:17.662Z,7.10
2018-03-06T08:31:45.117Z,7.10
2018-03-06T08:34:13.724Z,7.00
2018-03-06T08:36:40.252Z,6.90
2018-03-06T08:39:06.788Z,6.90
2018-03-06T08:41:33.727Z,6.80
2018-03-06T08:44:00.723Z,6.80
2018-03-06T08:46:28.513Z,6.80
2018-03-06T08:48:55.102Z,6.80
2018-03-06T08:51:21.939Z,6.80
2018-03-06T08:53:48.653Z,6.80
2018-03-06T08:56:15.488Z,6.90
2018-03-06T08:58:42.176Z,7.10
2018-03-06T09:01:08.869Z,7.30
2018-03-06T09:03:36.399Z,7.40
2018-03-06T09:58:10.411Z,9.60
2018-03-06T10:00:37.941Z,9.60
2018-03-06T10:03:04.891Z,9.90
2018-03-06T10:05:31.779Z,9.80
2018-03-06T10:07:58.831Z,9.80
2018-03-06T10:10:25.073Z,9.80
2018-03-06T10:12:54.339Z,9.80
2018-03-06T10:15:20.583Z,9.80
2018-03-06T10:17:46.925Z,9.80
2018-03-06T10:20:13.044Z,9.90
2018-03-06T10:22:39.380Z,9.90
2018-03-06T10:25:05.812Z,10.00
2018-03-06T10:27:31.976Z,10.00
2018-03-06T10:29:58.755Z,10.00
2018-03-06T10:32:24.925Z,10.10
2018-03-06T10:34:51.144Z,10.10
2018-03-06T10:37:17.407Z,10.10
2018-03-06T10:39:43.565Z,10.10
2018-03-06T10:42:09.803Z,10.10
2018-03-06T10:44:35.956Z,10.20
2018-03-06T10:47:02.767Z,10.20
2018-03-06T10:49:28.964Z,10.40
2018-03-06T10:51:55.232Z,10.50
2018-03-06T10:54:21.462Z,10.70
2018-03-06T10:56:47.817Z,10.80
2018-03-06T10:59:13.968Z,11.00
2018-03-06T11:01:40.198Z,11.00
2018-03-06T11:04:06.387Z,11.20
2018-03-06T11:06:33.321Z,11.30
2018-03-06T11:09:00.205Z,11.30
2018-03-06T11:11:26.463Z,11.20
2018-03-06T11:13:53.374Z,11.30
2018-03-06T11:16:20.126Z,11.50
2018-03-06T11:18:47.036Z,11.70
2018-03-06T11:21:13.400Z,11.60
2018-03-06T11:23:39.650Z,11.80
2018-03-06T11:26:05.831Z,11.70
2018-03-06T11:28:32.074Z,11.80
2018-03-06T11:30:58.843Z,11.60
2018-03-06T11:33:25.057Z,11.70
2018-03-06T11:35:52.141Z,11.90
2018-03-06T11:38:18.345Z,11.80
2018-03-06T11:40:44.572Z,11.90
2018-03-06T11:43:11.727Z,12.10
2018-03-06T11:45:37.862Z,12.30
2018-03-06T11:48:04.118Z,12.80
2018-03-06T11:50:30.434Z,13.00
2018-03-06T11:52:57.101Z,13.10
2018-03-06T11:55:23.296Z,13.20
2018-03-06T11:57:53.806Z,13.20
2018-03-06T12:00:20.866Z,12.80
2018-03-06T12:02:51.000Z,12.80
2018-03-06T12:05:19.254Z,12.90
2018-03-06T12:07:47.357Z,13.10
2018-03-06T12:10:15.870Z,13.20
2018-03-06T12:12:42.751Z,13.50
2018-03-06T12:15:08.972Z,13.70
2018-03-06T12:17:35.881Z,14.10
2018-03-06T12:20:04.437Z,14.10
2018-03-06T12:22:33.159Z,14.10
2018-03-06T12:25:00.317Z,14.10
2018-03-06T12:27:27.081Z,14.10
2018-03-06T12:29:53.278Z,14.10
2018-03-06T12:32:20.373Z,14.00
2018-03-06T12:34:48.075Z,13.90
2018-03-06T12:37:17.548Z,13.90
2018-03-06T12:39:47.264Z,14.20
2018-03-06T12:42:22.265Z,14.10
2018-03-06T12:44:51.045Z,14.30
2018-03-06T12:50:05.657Z,14.10
2018-03-06T12:52:36.093Z,13.90
2018-03-06T12:55:02.446Z,14.00
2018-03-06T12:57:28.645Z,13.90
2018-03-06T12:59:55.543Z,13.80
2018-03-06T13:02:21.770Z,13.80
2018-03-06T13:04:48.331Z,13.90
2018-03-06T13:07:14.527Z,14.00
2018-03-06T13:09:43.449Z,13.80
2018-03-06T13:12:10.709Z,14.10
2018-03-06T13:14:36.849Z,14.40
2018-03-06T13:17:03.418Z,14.70
2018-03-06T13:19:30.971Z,14.50
2018-03-06T13:21:58.524Z,14.50
2018-03-06T13:24:24.749Z,14.50
2018-03-06T13:26:51.348Z,14.40
2018-03-06T13:29:18.941Z,14.40
2018-03-06T13:31:45.136Z,14.50
2018-03-06T13:34:12.095Z,14.40
2018-03-06T13:36:38.258Z,14.40
2018-03-06T13:39:05.862Z,14.40
2018-03-06T13:41:33.281Z,14.40
2018-03-06T13:44:00.272Z,14.40
2018-03-06T13:46:26.476Z,14.40
2018-03-06T13:48:52.973Z,14.30
2018-03-06T13:51:19.222Z,14.40
2018-03-06T13:53:45.458Z,14.40
2018-03-06T13:56:11.671Z,14.40
2018-03-06T13:58:37.822Z,14.30
2018-03-06T14:01:04.105Z,14.20
2018-03-06T14:03:30.244Z,14.10
2018-03-06T14:05:56.407Z,14.00
2018-03-06T14:08:22.618Z,13.90
2018-03-06T14:10:49.650Z,13.90
2018-03-06T14:13:16.136Z,14.00
2018-03-06T14:15:42.672Z,14.10
2018-03-06T14:18:08.844Z,14.00
2018-03-06T14:20:35.782Z,14.40
2018-03-06T14:23:01.967Z,14.40
2018-03-06T14:25:34.091Z,14.10
2018-03-06T14:28:26.109Z,14.20
2018-03-06T14:30:52.387Z,14.10
2018-03-06T14:33:18.627Z,13.90
2018-03-06T14:35:45.204Z,13.90
2018-03-06T14:38:12.093Z,13.80
2018-03-06T14:40:38.565Z,13.80
2018-03-06T14:43:05.237Z,13.70
2018-03-06T14:45:33.357Z,13.70
2018-03-06T14:48:04.151Z,13.80
2018-03-06T14:50:34.144Z,13.90
2018-03-06T14:53:00.858Z,13.90
2018-03-06T14:55:32.054Z,13.80
2018-03-06T14:57:58.545Z,13.90
2018-03-06T15:00:24.757Z,13.90
2018-03-06T15:02:51.182Z,13.80
2018-03-06T15:05:17.590Z,13.80
2018-03-06T15:07:45.554Z,13.90
2018-03-06T15:10:11.995Z,14.00
2018-03-06T15:12:40.151Z,14.00
2018-03-06T15:15:06.387Z,14.00
2018-03-06T15:17:33.625Z,14.00
2018-03-06T15:20:01.034Z,14.10
2018-03-06T15:22:28.924Z,14.10
2018-03-06T15:24:55.340Z,14.00
2018-03-06T15:27:24.481Z,14.00
2018-03-06T15:29:50.710Z,13.80
2018-03-06T15:32:18.937Z,13.60
2018-03-06T15:34:46.324Z,13.50
2018-03-06T15:37:13.378Z,13.40
2018-03-06T15:39:42.601Z,13.50
2018-03-06T15:42:12.905Z,13.60
2018-03-06T15:44:39.345Z,13.60
2018-03-06T15:47:07.144Z,13.40
2018-03-06T15:49:33.398Z,13.40
2018-03-06T15:51:59.607Z,13.30
2018-03-06T15:54:25.845Z,13.30
2018-03-06T15:56:52.034Z,13.40
2018-03-06T15:59:18.958Z,13.30
2018-03-06T16:01:46.001Z,13.20
2018-03-06T16:04:12.555Z,13.20
2018-03-06T16:06:38.906Z,13.10
2018-03-06T16:09:05.110Z,13.30
2018-03-06T16:11:37.679Z,13.30
2018-03-06T16:14:03.900Z,13.20
2018-03-06T16:16:30.050Z,13.10
2018-03-06T16:18:56.626Z,12.90
2018-03-06T16:21:22.871Z,12.80
2018-03-06T16:23:56.960Z,12.70
2018-03-06T16:26:23.173Z,12.60
2018-03-06T16:28:49.841Z,12.60
2018-03-06T16:31:16.216Z,12.40
2018-03-06T16:33:43.166Z,12.30
2018-03-06T16:36:10.081Z,12.20
2018-03-06T16:38:36.256Z,12.10
2018-03-06T16:41:05.430Z,12.10
2018-03-06T16:43:31.604Z,11.90
2018-03-06T16:45:57.764Z,11.90
2018-03-06T16:48:24.741Z,11.70
2018-03-06T16:50:51.000Z,11.70
2018-03-06T16:53:17.173Z,11.60
2018-03-06T16:55:43.461Z,11.50
2018-03-06T16:58:09.694Z,11.40
2018-03-06T17:00:35.960Z,11.30
2018-03-06T17:03:02.342Z,11.20
2018-03-06T17:05:28.620Z,11.10
2018-03-06T17:07:55.588Z,11.00
2018-03-06T17:10:21.898Z,11.00
2018-03-06T17:12:48.090Z,10.90
2018-03-06T17:15:14.489Z,10.90
2018-03-06T17:17:40.889Z,10.80
2018-03-06T17:20:07.318Z,10.70
2018-03-06T17:22:33.570Z,10.70
2018-03-06T17:25:00.095Z,10.50
2018-03-06T17:27:26.965Z,10.50
2018-03-06T17:29:53.567Z,10.40
2018-03-06T17:32:19.996Z,10.40
2018-03-06T17:34:46.382Z,10.30
2018-03-06T17:39:48.685Z,10.20
2018-03-06T17:42:15.813Z,10.10
2018-03-06T17:47:13.512Z,10.10
2018-03-06T17:49:39.766Z,10.00
2018-03-06T17:52:06.022Z,10.00
2018-03-06T17:54:32.189Z,10.00
2018-03-06T17:56:58.465Z,9.90
2018-03-06T17:59:24.663Z,9.90
2018-03-06T18:01:50.926Z,10.00
2018-03-06T18:04:17.112Z,9.90
2018-03-06T18:06:43.259Z,10.00
2018-03-06T18:09:09.478Z,10.00
2018-03-06T18:11:36.587Z,10.00
2018-03-06T18:14:03.579Z,10.10
2018-03-06T18:16:29.773Z,10.00
2018-03-06T18:18:56.917Z,10.00
2018-03-06T18:21:23.181Z,10.00
2018-03-06T18:23:49.608Z,10.00
2018-03-06T18:26:16.558Z,10.00
2018-03-06T18:28:42.725Z,10.00
2018-03-06T18:31:08.937Z,10.10
2018-03-06T18:33:35.309Z,10.10
2018-03-06T18:36:02.414Z,10.20
2018-03-06T18:38:28.661Z,10.10
2018-03-06T18:40:54.869Z,10.20
2018-03-06T18:43:23.923Z,10.20
2018-03-06T18:45:50.180Z,10.20
2018-03-06T18:48:16.812Z,10.20
2018-03-06T18:50:55.296Z,10.20
2018-03-06T18:53:21.494Z,10.20
2018-03-06T18:55:48.844Z,10.20
2018-03-06T18:58:15.033Z,10.20
2018-03-06T19:01:02.419Z,10.20
2018-03-06T19:03:40.851Z,10.10
2018-03-06T19:06:19.245Z,10.00
2018-03-06T19:09:06.450Z,10.00
2018-03-06T19:11:32.910Z,10.00
2018-03-06T19:13:59.086Z,10.00
2018-03-06T19:16:25.231Z,10.00
2018-03-06T19:18:51.383Z,10.00
2018-03-06T19:21:17.977Z,9.90
2018-03-06T19:23:44.166Z,9.90
2018-03-06T19:26:10.326Z,9.90
2018-03-06T19:28:36.537Z,9.90
2018-03-06T19:31:04.109Z,9.90
2018-03-06T19:33:30.358Z,9.90
2018-03-06T19:35:56.576Z,9.80
2018-03-06T19:38:23.788Z,9.80
2018-03-06T19:40:49.988Z,10.00
2018-03-06T19:43:17.104Z,10.10
2018-03-06T19:45:44.521Z,10.00
2018-03-06T19:48:10.757Z,10.00
2018-03-06T19:50:37.040Z,10.00
2018-03-06T19:53:03.189Z,10.00
2018-03-06T19:55:29.353Z,10.00
2018-03-06T19:57:55.637Z,9.90
2018-03-06T20:00:21.825Z,9.90
2018-03-06T20:02:47.993Z,9.90
2018-03-06T20:05:14.171Z,9.80
2018-03-06T20:07:40.296Z,9.80
2018-03-06T20:10:06.498Z,9.80
2018-03-06T20:12:33.575Z,9.70
2018-03-06T20:17:58.565Z,9.60
2018-03-06T20:20:24.928Z,9.50
2018-03-06T20:22:51.771Z,9.60
2018-03-06T20:34:29.044Z,9.40
2018-03-06T20:36:55.295Z,9.30
2018-03-06T20:39:27.634Z,9.30
2018-03-06T20:41:53.828Z,9.30
2018-03-06T20:44:20.720Z,9.20
2018-03-06T20:46:52.972Z,9.20
2018-03-06T20:49:19.265Z,9.20
2018-03-06T20:51:47.187Z,9.30
2018-03-06T20:54:19.352Z,9.20
2018-03-06T20:56:45.507Z,9.30
2018-03-06T20:59:11.665Z,9.20
2018-03-06T21:01:37.840Z,9.20
2018-03-06T21:04:04.780Z,9.10
2018-03-06T21:06:31.032Z,9.10
2018-03-06T21:08:57.278Z,9.10
2018-03-06T21:11:24.209Z,9.00
2018-03-06T21:13:50.512Z,9.00
2018-03-06T21:16:16.661Z,9.00
2018-03-06T21:18:42.966Z,9.00
2018-03-06T21:21:09.323Z,9.00
2018-03-06T21:23:35.546Z,9.00
2018-03-06T21:26:03.008Z,9.00
2018-03-06T21:28:30.012Z,9.00
2018-03-06T21:30:58.305Z,9.00
2018-03-06T21:33:25.337Z,9.00
2018-03-06T21:35:52.745Z,9.00
2018-03-06T21:38:20.712Z,9.00
2018-03-06T21:43:35.263Z,9.00
2018-03-06T21:46:05.316Z,9.00
2018-03-06T21:48:31.564Z,9.00
2018-03-06T21:51:02.689Z,9.00
2018-03-06T21:53:31.668Z,9.00
2018-03-06T21:56:06.139Z,9.00
2018-03-06T21:58:35.376Z,9.00
2018-03-06T22:01:05.801Z,9.00
2018-03-06T22:03:35.722Z,8.90
2018-03-06T22:06:02.750Z,8.90
2018-03-06T22:08:34.232Z,9.00
2018-03-06T22:11:00.801Z,8.90
2018-03-06T22:13:27.474Z,8.90
2018-03-06T22:15:54.349Z,8.90
2018-03-06T22:18:22.473Z,8.90
2018-03-06T22:20:49.452Z,8.80
2018-03-06T22:23:16.513Z,8.80
2018-03-06T22:25:44.085Z,8.80
2018-03-06T22:28:13.164Z,8.80
2018-03-06T22:30:40.955Z,8.70
2018-03-06T22:33:08.303Z,8.70
2018-03-06T22:35:35.033Z,8.70
2018-03-06T22:38:01.614Z,8.70
2018-03-06T22:40:36.089Z,8.60
2018-03-06T22:43:03.212Z,8.50
2018-03-06T22:45:40.999Z,8.50
2018-03-06T23:00:33.127Z,8.40
2018-03-06T23:03:00.186Z,8.30
2018-03-06T23:05:26.810Z,8.20
2018-03-06T23:07:53.040Z,8.30
2018-03-06T23:10:19.344Z,8.20
2018-03-06T23:12:47.144Z,8.30
2018-03-06T23:15:14.645Z,8.20
2018-03-06T23:17:42.348Z,8.20
2018-03-06T23:20:08.679Z,8.20
2018-03-06T23:22:35.864Z,8.30
2018-03-06T23:25:02.640Z,8.30
2018-03-06T23:27:28.933Z,8.40
2018-03-06T23:29:55.097Z,8.30
2018-03-06T23:32:21.272Z,8.30
2018-03-06T23:34:47.752Z,8.30
2018-03-06T23:37:14.411Z,8.30
2018-03-06T23:39:40.566Z,8.30
2018-03-06T23:42:06.900Z,8.30
2018-03-06T23:44:33.564Z,8.20
2018-03-06T23:46:59.923Z,8.20
2018-03-06T23:49:31.625Z,8.10
2018-03-06T23:51:58.185Z,8.10
2018-03-06T23:54:24.746Z,8.10
2018-03-06T23:56:50.896Z,8.00
2018-03-06T23:59:17.116Z,8.00
